Airfield :
LOGIN :

Register | Disclaimer

   EN    FR    IT 

 










Legend :    VFR   Marginal VFR   IFR   Intensive IFR   Very Intensive IFR
Visi :
Ceiling :
>= 8 km
>= 3000ft
5 to 8 km
1000 to 3000 ft
1500m to 5 km
500 to 1000 ft
800 to 1500m
200 to 500 ft
< 800m
< 200 ft
Symbols :   Thunderstorms  Fog  Heavy snow  Heavy precipitations  Wind > 20 kt
SIGMETs :     Misc.  Thunderstorms  Icing  Turbulence  Mountain Waves  Volcanic Ashes







- Airport Elevation : 142 ft
- IATA code : FLR


LIRQ - Firenze Amerigo Vespucci

CURRENT METAR :
  • 262250Z 17003KT 140V200 9999 BKN030 17/12 Q1009

EXPIRED METARs :
  • 262220Z VRB02KT 9999 BKN030 17/11 Q1009
  • 262150Z 13005KT 9999 BKN030 17/11 Q1009
  • 262120Z 12005KT 9999 BKN030 17/11 Q1009
  • 262050Z VRB02KT 9999 BKN030 17/11 Q1009
  • 262020Z 18003KT 140V210 9999 BKN030 17/11 Q1009

TAF TAF LIRQ
Valid from the 26 at 12:00 until the 27 at 12:00 UTC


261100Z 2612/2712 23012KT 9999 BKN030
TEMPO 2612/2618 4000 SHRA
TEMPO 2703/2712 4000 SHRA
No reported NOTAMs for that airfield.



MET'MAP, your aeronautical weather chart ! - Copyright ORBIFLY December 2007 - Disclaimer

ORBIFLY MET'MAP TEAM :

Programming & Development : Alexandra Zaïnal
Concept & Development : Baudouin d'Aumeries
Co-Development & Prog : Marc-Olivier Méhu
Technical & hardware support : Manuel Goepfert

Contact : metmap@orbifly.com




SOURCES & CREDITS :

   NOAA